Time;durP1;ratioP1;P1;durP2;ratioP2;P2;SDS_P1;SDS_P2;PMS_P1;PMS_P2;Temp;Humidity;BMP_temperature;BMP_pressure;BME280_temperature;BME280_humidity;BME280_pressure;Samples;Min_cycle;Max_cycle;Signal;HPM_P1;HPM_P2
2021/10/27 00:01:57;;;;;;;5.07;4.40;;;11.80;99.90;;;;;;5119564;28;20470;-69
2021/10/27 00:04:23;;;;;;;6.40;4.23;;;11.90;99.90;;;;;;5118335;28;20474;-69
2021/10/27 00:06:51;;;;;;;4.77;3.70;;;11.80;99.90;;;;;;5117952;28;20455;-68
2021/10/27 00:09:18;;;;;;;4.53;3.73;;;11.80;99.90;;;;;;5125370;28;20564;-68
2021/10/27 00:11:45;;;;;;;5.17;4.00;;;11.80;99.90;;;;;;5121098;28;20776;-68
2021/10/27 00:14:11;;;;;;;4.07;3.60;;;11.80;99.90;;;;;;5118175;28;20462;-69
2021/10/27 00:16:38;;;;;;;6.43;4.00;;;11.80;99.90;;;;;;5117136;28;20937;-68
2021/10/27 00:19:05;;;;;;;5.47;4.00;;;11.80;99.90;;;;;;5115252;28;20823;-68
2021/10/27 00:21:32;;;;;;;7.53;4.03;;;11.80;99.90;;;;;;5115560;28;20947;-68
2021/10/27 00:24:00;;;;;;;6.13;3.67;;;11.70;99.90;;;;;;5115912;28;20486;-68
2021/10/27 00:26:26;;;;;;;7.53;4.10;;;11.80;99.90;;;;;;5115117;28;20788;-68
2021/10/27 00:28:53;;;;;;;9.30;5.03;;;11.70;99.90;;;;;;5117709;28;20465;-68
2021/10/27 00:31:20;;;;;;;4.67;4.10;;;11.80;99.90;;;;;;5115105;28;20465;-68
2021/10/27 00:33:46;;;;;;;4.67;4.10;;;11.80;99.90;;;;;;5115036;28;20462;-68
2021/10/27 00:36:13;;;;;;;4.70;3.97;;;11.70;99.90;;;;;;5116234;28;20448;-68
2021/10/27 00:38:40;;;;;;;4.93;4.20;;;11.70;99.90;;;;;;5115139;28;20462;-70
2021/10/27 00:41:09;;;;;;;7.33;3.97;;;11.70;99.90;;;;;;5117493;28;20452;-68
2021/10/27 00:43:36;;;;;;;6.13;4.00;;;11.60;99.90;;;;;;5114961;28;20914;-67
2021/10/27 00:46:03;;;;;;;5.17;3.87;;;11.70;99.90;;;;;;5115329;28;20796;-68
2021/10/27 00:48:30;;;;;;;6.80;3.87;;;11.70;99.90;;;;;;5114476;28;20461;-68
2021/10/27 00:50:57;;;;;;;6.30;4.10;;;11.60;99.90;;;;;;5115182;28;20467;-68
2021/10/27 00:53:24;;;;;;;7.60;4.33;;;11.60;99.90;;;;;;5114856;28;20785;-68
2021/10/27 00:55:52;;;;;;;5.13;4.00;;;11.60;99.90;;;;;;5115367;28;20460;-68
2021/10/27 00:58:20;;;;;;;5.73;4.00;;;11.60;99.90;;;;;;5115710;28;20476;-69
2021/10/27 01:00:47;;;;;;;7.17;4.23;;;11.50;99.90;;;;;;5115870;28;20461;-68
2021/10/27 01:03:14;;;;;;;6.50;4.87;;;11.50;99.90;;;;;;5115024;28;20510;-68
2021/10/27 01:05:41;;;;;;;5.23;4.20;;;11.60;99.90;;;;;;5115007;28;20803;-68
2021/10/27 01:08:08;;;;;;;8.53;4.20;;;11.50;99.90;;;;;;5115413;28;20544;-68
2021/10/27 01:10:34;;;;;;;7.20;3.47;;;11.50;99.90;;;;;;5116000;28;20929;-68
2021/10/27 01:13:01;;;;;;;8.90;3.90;;;11.50;99.90;;;;;;5118464;28;20489;-68
2021/10/27 01:15:29;;;;;;;4.40;3.90;;;11.50;99.90;;;;;;5118455;28;20917;-68
2021/10/27 01:17:56;;;;;;;6.70;4.40;;;11.50;99.90;;;;;;5118731;28;20522;-68
2021/10/27 01:20:26;;;;;;;7.13;3.90;;;11.50;99.90;;;;;;5119064;28;20467;-68
2021/10/27 01:22:52;;;;;;;5.33;4.23;;;11.50;99.90;;;;;;5122352;28;20454;-69
2021/10/27 01:25:19;;;;;;;10.40;4.20;;;11.60;99.90;;;;;;5118221;28;20465;-68
2021/10/27 01:27:47;;;;;;;4.47;4.10;;;11.60;99.90;;;;;;5120537;28;20465;-68
2021/10/27 01:30:17;;;;;;;7.20;4.00;;;11.60;99.90;;;;;;5118782;28;20520;-68
2021/10/27 01:32:45;;;;;;;5.17;4.67;;;11.60;99.90;;;;;;5119406;28;20460;-70
2021/10/27 01:35:14;;;;;;;5.10;4.17;;;11.60;99.90;;;;;;5118076;28;20464;-69
2021/10/27 01:37:43;;;;;;;5.53;4.23;;;11.50;99.90;;;;;;5118174;28;20555;-69
2021/10/27 01:40:13;;;;;;;6.53;4.03;;;11.50;99.90;;;;;;5118744;28;20468;-69
2021/10/27 01:42:40;;;;;;;7.67;5.00;;;11.50;99.90;;;;;;5118546;28;20462;-69
2021/10/27 01:45:08;;;;;;;5.20;4.70;;;11.50;99.90;;;;;;5118339;28;20498;-69
2021/10/27 01:47:35;;;;;;;7.40;4.30;;;11.50;99.90;;;;;;5118472;28;20460;-69
2021/10/27 01:50:03;;;;;;;6.47;4.67;;;11.50;99.90;;;;;;5117878;28;20465;-69
2021/10/27 01:52:29;;;;;;;6.40;4.77;;;11.60;99.90;;;;;;5118212;28;20765;-69
2021/10/27 01:55:12;;;;;;;6.73;4.40;;;11.60;99.90;;;;;;5119236;28;20460;-69
2021/10/27 01:57:40;;;;;;;4.90;4.40;;;11.60;99.90;;;;;;5115899;28;20457;-69
2021/10/27 02:00:08;;;;;;;10.23;4.93;;;11.60;99.90;;;;;;5118089;28;20558;-68
2021/10/27 02:02:35;;;;;;;8.60;4.50;;;11.60;99.90;;;;;;5118153;28;20453;-68
2021/10/27 02:05:02;;;;;;;6.93;4.90;;;11.60;99.90;;;;;;5118147;28;20511;-68
2021/10/27 02:07:29;;;;;;;5.87;4.23;;;11.60;99.90;;;;;;5117865;28;20459;-68
2021/10/27 02:09:56;;;;;;;5.50;4.77;;;11.60;99.90;;;;;;5116946;28;20464;-68
2021/10/27 02:12:24;;;;;;;5.23;4.70;;;11.60;99.90;;;;;;5118545;28;20467;-68
2021/10/27 02:14:51;;;;;;;8.13;4.97;;;11.60;99.90;;;;;;5118305;28;20497;-69
2021/10/27 02:17:17;;;;;;;5.63;4.77;;;11.60;99.90;;;;;;5117914;28;20460;-69
2021/10/27 02:19:44;;;;;;;7.93;4.80;;;11.60;99.90;;;;;;5117956;28;20458;-69
2021/10/27 02:22:11;;;;;;;4.43;4.03;;;11.60;99.90;;;;;;5117932;28;20513;-69
2021/10/27 02:24:37;;;;;;;6.00;4.13;;;11.60;99.90;;;;;;5116939;28;20493;-69
2021/10/27 02:27:05;;;;;;;4.97;4.47;;;11.60;99.90;;;;;;5117155;28;20488;-69
2021/10/27 02:29:33;;;;;;;6.57;4.07;;;11.60;99.90;;;;;;5117471;28;20460;-68
2021/10/27 02:32:04;;;;;;;5.37;4.30;;;11.70;99.90;;;;;;5117742;28;20551;-69
2021/10/27 02:34:31;;;;;;;5.20;4.70;;;11.70;99.90;;;;;;5117111;28;20452;-68
2021/10/27 02:36:57;;;;;;;5.53;4.90;;;11.70;99.90;;;;;;5117237;28;20455;-68
2021/10/27 02:39:24;;;;;;;6.97;5.00;;;11.70;99.90;;;;;;5117683;28;20465;-68
2021/10/27 02:41:51;;;;;;;7.63;4.17;;;11.70;99.90;;;;;;5117296;28;20912;-69
2021/10/27 02:44:17;;;;;;;5.93;4.60;;;11.70;99.90;;;;;;5117669;28;20461;-69
2021/10/27 02:46:46;;;;;;;6.40;5.03;;;11.70;99.90;;;;;;5117359;28;20986;-68
2021/10/27 02:49:13;;;;;;;5.40;4.87;;;11.60;99.90;;;;;;5117707;27;20836;-69
2021/10/27 02:51:39;;;;;;;7.63;5.40;;;11.60;99.90;;;;;;5116442;28;20456;-69
2021/10/27 02:54:06;;;;;;;5.43;4.93;;;11.60;99.90;;;;;;5117280;28;20772;-69
2021/10/27 02:56:33;;;;;;;6.63;5.10;;;11.60;99.90;;;;;;5116736;28;20467;-69
2021/10/27 02:58:59;;;;;;;6.30;4.60;;;11.60;99.90;;;;;;5117462;28;20457;-69
2021/10/27 03:01:26;;;;;;;7.80;5.10;;;11.60;99.90;;;;;;5116767;28;20457;-69
2021/10/27 03:03:54;;;;;;;6.27;4.93;;;11.70;99.90;;;;;;5117222;28;20948;-69
2021/10/27 03:06:21;;;;;;;5.30;4.80;;;11.70;99.90;;;;;;5116975;28;20489;-68
2021/10/27 03:08:48;;;;;;;6.67;5.07;;;11.60;99.90;;;;;;5116605;28;20932;-68
2021/10/27 03:11:15;;;;;;;5.00;4.40;;;11.60;99.90;;;;;;5117369;28;20465;-68
2021/10/27 03:13:42;;;;;;;5.67;4.83;;;11.60;99.90;;;;;;5116209;28;20453;-69
2021/10/27 03:16:09;;;;;;;5.70;5.03;;;11.60;99.90;;;;;;5116641;28;20454;-68
2021/10/27 03:18:35;;;;;;;6.20;5.17;;;11.60;99.90;;;;;;5116847;28;20469;-69
2021/10/27 03:21:03;;;;;;;6.70;5.60;;;11.60;99.90;;;;;;5116062;28;20468;-69
2021/10/27 03:23:30;;;;;;;5.13;4.63;;;11.60;99.90;;;;;;5115940;28;20495;-68
2021/10/27 03:25:57;;;;;;;7.63;4.80;;;11.60;99.90;;;;;;5116835;28;20484;-69
2021/10/27 03:28:24;;;;;;;8.13;5.40;;;11.60;99.90;;;;;;5116987;28;20537;-68
2021/10/27 03:30:51;;;;;;;8.20;5.30;;;11.60;99.90;;;;;;5115759;28;20457;-69
2021/10/27 03:33:18;;;;;;;8.30;5.03;;;11.60;99.90;;;;;;5116085;28;20450;-69
2021/10/27 03:35:44;;;;;;;6.90;5.10;;;11.60;99.90;;;;;;5116231;28;20461;-70
2021/10/27 03:38:12;;;;;;;6.10;5.47;;;11.60;99.90;;;;;;5117301;28;20476;-69
2021/10/27 03:40:39;;;;;;;5.77;4.70;;;11.60;99.90;;;;;;5116369;28;20932;-68
2021/10/27 03:43:06;;;;;;;11.13;5.10;;;11.60;99.90;;;;;;5116287;28;20934;-68
2021/10/27 03:45:34;;;;;;;5.03;4.53;;;11.60;99.90;;;;;;5115811;28;20477;-69
2021/10/27 03:48:01;;;;;;;5.80;4.60;;;11.60;99.90;;;;;;5116099;28;20867;-69
2021/10/27 03:50:27;;;;;;;5.77;4.93;;;11.60;99.90;;;;;;5116451;28;20467;-69
2021/10/27 03:52:54;;;;;;;5.23;4.70;;;11.50;99.90;;;;;;5116165;28;20458;-68
2021/10/27 03:55:22;;;;;;;9.43;5.23;;;11.50;99.90;;;;;;5115587;28;20468;-68
2021/10/27 03:57:49;;;;;;;9.97;5.80;;;11.50;99.90;;;;;;5115942;28;20483;-69
2021/10/27 04:00:16;;;;;;;8.73;5.10;;;11.50;99.90;;;;;;5115775;28;20456;-69
2021/10/27 04:02:43;;;;;;;6.53;5.10;;;11.50;99.90;;;;;;5117109;28;20455;-69
2021/10/27 04:05:11;;;;;;;7.67;5.60;;;11.50;99.90;;;;;;5118252;28;20465;-69
2021/10/27 04:07:38;;;;;;;6.73;4.70;;;11.50;99.90;;;;;;5117741;28;20463;-69
2021/10/27 04:10:07;;;;;;;8.77;5.23;;;11.50;99.90;;;;;;5116156;28;20462;-69
2021/10/27 04:12:36;;;;;;;5.17;4.67;;;11.50;99.90;;;;;;5115674;28;20461;-69
2021/10/27 04:15:04;;;;;;;5.80;5.20;;;11.50;99.90;;;;;;5116209;28;20483;-68
2021/10/27 04:17:31;;;;;;;6.33;5.50;;;11.50;99.90;;;;;;5116968;28;20454;-69
2021/10/27 04:19:58;;;;;;;8.60;5.07;;;11.50;99.90;;;;;;5115848;28;20522;-69
2021/10/27 04:22:25;;;;;;;5.47;4.90;;;11.50;99.90;;;;;;5116179;28;20469;-69
2021/10/27 04:24:54;;;;;;;8.50;5.90;;;11.50;99.90;;;;;;5115307;28;20494;-68
2021/10/27 04:27:22;;;;;;;9.97;5.03;;;11.50;99.90;;;;;;5116449;28;20513;-69
2021/10/27 04:29:50;;;;;;;5.77;4.90;;;11.50;99.90;;;;;;5116450;28;20475;-68
2021/10/27 04:32:17;;;;;;;8.23;5.23;;;11.50;99.90;;;;;;5115683;28;20461;-68
2021/10/27 04:34:46;;;;;;;5.80;5.20;;;11.60;99.90;;;;;;5116150;28;20453;-68
2021/10/27 04:37:15;;;;;;;6.63;4.87;;;11.60;99.90;;;;;;5115504;28;20460;-68
2021/10/27 04:39:42;;;;;;;7.20;5.77;;;11.60;99.90;;;;;;5116115;28;20471;-68
2021/10/27 04:42:09;;;;;;;5.83;5.00;;;11.60;99.90;;;;;;5115985;28;20532;-68
2021/10/27 04:44:35;;;;;;;7.97;5.80;;;11.60;99.90;;;;;;5115191;28;20460;-68
2021/10/27 04:47:04;;;;;;;6.13;5.53;;;11.60;99.90;;;;;;5120217;28;20491;-68
2021/10/27 04:49:31;;;;;;;9.07;5.90;;;11.60;99.90;;;;;;5119966;28;20455;-68
2021/10/27 04:51:58;;;;;;;5.90;5.07;;;11.60;99.90;;;;;;5119770;28;20457;-68
2021/10/27 04:54:25;;;;;;;5.80;5.17;;;11.60;99.90;;;;;;5119459;28;20460;-68
2021/10/27 04:56:51;;;;;;;13.90;6.20;;;11.60;99.90;;;;;;5119812;28;20459;-68
2021/10/27 04:59:19;;;;;;;7.03;6.13;;;11.60;99.90;;;;;;5119609;28;20769;-68
2021/10/27 05:01:46;;;;;;;6.23;5.63;;;11.60;99.90;;;;;;5120299;28;20454;-68
2021/10/27 05:04:16;;;;;;;10.10;5.37;;;11.60;99.90;;;;;;5119551;28;20558;-68
2021/10/27 05:06:43;;;;;;;5.87;5.30;;;11.60;99.90;;;;;;5120387;28;20507;-68
2021/10/27 05:09:09;;;;;;;6.70;5.10;;;11.60;99.90;;;;;;5119208;28;20466;-68
2021/10/27 05:11:36;;;;;;;21.77;6.20;;;11.60;99.90;;;;;;5119874;28;20484;-67
2021/10/27 05:14:03;;;;;;;5.90;5.00;;;11.60;99.90;;;;;;5119239;28;20453;-67
2021/10/27 05:16:30;;;;;;;5.93;4.43;;;11.60;99.90;;;;;;5119315;28;20453;-68
2021/10/27 05:18:56;;;;;;;8.20;5.20;;;11.60;99.90;;;;;;5118931;28;20517;-69
2021/10/27 05:21:24;;;;;;;5.70;5.07;;;11.60;99.90;;;;;;5118986;28;20452;-68
2021/10/27 05:23:53;;;;;;;8.40;5.50;;;11.60;99.90;;;;;;5118431;28;20961;-68
2021/10/27 05:26:19;;;;;;;7.10;5.17;;;11.60;99.90;;;;;;5118472;28;20483;-68
2021/10/27 05:28:46;;;;;;;6.77;4.90;;;11.60;99.90;;;;;;5118405;28;20555;-68
2021/10/27 05:31:13;;;;;;;6.20;5.00;;;11.60;99.90;;;;;;5118664;28;20916;-68
2021/10/27 05:33:41;;;;;;;5.73;4.60;;;11.60;99.90;;;;;;5119579;28;20543;-68
2021/10/27 05:36:07;;;;;;;5.93;4.70;;;11.70;99.90;;;;;;5119009;28;20458;-67
2021/10/27 05:38:36;;;;;;;5.83;5.27;;;11.60;99.90;;;;;;5120212;28;20470;-70
2021/10/27 05:41:02;;;;;;;8.37;5.20;;;11.60;99.90;;;;;;5118466;28;20457;-68
2021/10/27 05:43:29;;;;;;;6.20;4.60;;;11.70;99.90;;;;;;5118329;28;20456;-69
2021/10/27 05:45:57;;;;;;;8.43;4.90;;;11.60;99.90;;;;;;5117213;28;20793;-69
2021/10/27 05:48:28;;;;;;;7.23;4.70;;;11.60;99.90;;;;;;5118772;28;20455;-68
2021/10/27 05:51:10;;;;;;;5.30;4.80;;;11.70;99.90;;;;;;5118871;28;20775;-69
2021/10/27 05:56:24;;;;;;;7.97;4.87;;;11.70;99.90;;;;;;5118716;28;20438;-69
2021/10/27 05:58:51;;;;;;;6.53;4.43;;;11.70;99.90;;;;;;5119265;28;20957;-68
2021/10/27 06:01:18;;;;;;;4.70;4.30;;;11.70;99.90;;;;;;5119608;28;20779;-69
2021/10/27 06:03:46;;;;;;;7.90;5.00;;;11.70;99.90;;;;;;5119017;28;20449;-69
2021/10/27 06:06:13;;;;;;;6.40;3.90;;;11.70;99.90;;;;;;5117607;28;20479;-69
2021/10/27 06:08:41;;;;;;;8.27;4.97;;;11.80;99.90;;;;;;5117174;28;20457;-69
2021/10/27 06:11:09;;;;;;;10.93;5.20;;;11.80;99.90;;;;;;5117774;28;20457;-70
2021/10/27 06:13:36;;;;;;;5.70;4.20;;;11.80;99.90;;;;;;5116994;28;20511;-68
2021/10/27 06:16:04;;;;;;;4.40;3.87;;;11.80;99.90;;;;;;5117136;28;20551;-70
2021/10/27 06:18:31;;;;;;;5.53;4.30;;;11.80;99.90;;;;;;5116971;28;20747;-70
2021/10/27 06:20:58;;;;;;;7.33;4.67;;;11.90;99.90;;;;;;5117417;28;20758;-70
2021/10/27 06:23:25;;;;;;;4.90;4.40;;;11.80;99.90;;;;;;5117414;28;20810;-70
2021/10/27 06:25:53;;;;;;;12.37;4.77;;;11.80;99.90;;;;;;5117238;28;20779;-69
2021/10/27 06:28:23;;;;;;;5.10;4.57;;;11.90;99.90;;;;;;5116482;28;20494;-69
2021/10/27 06:30:53;;;;;;;5.80;4.50;;;11.90;99.90;;;;;;5117026;28;20808;-69
2021/10/27 06:36:05;;;;;;;7.77;4.57;;;12.00;99.90;;;;;;5103477;28;20438;-69
2021/10/27 06:38:50;;;;;;;7.27;4.60;;;12.00;99.90;;;;;;5116525;28;20518;-69
2021/10/27 06:46:48;;;;;;;7.03;4.40;;;12.00;99.90;;;;;;5116309;28;20479;-70
2021/10/27 06:49:15;;;;;;;6.00;4.33;;;12.00;99.90;;;;;;5117111;28;20470;-68
2021/10/27 06:51:41;;;;;;;5.80;4.00;;;12.10;99.90;;;;;;5116047;28;20453;-71
2021/10/27 06:54:08;;;;;;;4.97;4.47;;;12.10;99.90;;;;;;5116518;28;20799;-68
2021/10/27 06:56:36;;;;;;;5.40;4.23;;;12.10;99.90;;;;;;5116271;28;20455;-70
2021/10/27 06:59:08;;;;;;;5.67;4.20;;;12.10;99.90;;;;;;5116812;28;20503;-68
2021/10/27 07:02:04;;;;;;;5.77;3.87;;;12.10;99.90;;;;;;5116540;28;20442;-68
2021/10/27 07:15:29;;;;;;;4.53;3.60;;;12.20;99.90;;;;;;5115763;28;20708;-70
2021/10/27 07:17:56;;;;;;;4.60;3.57;;;12.20;99.90;;;;;;5116403;28;20439;-70
2021/10/27 07:20:24;;;;;;;9.73;4.47;;;12.20;99.90;;;;;;5115445;28;20458;-70
2021/10/27 07:22:51;;;;;;;5.70;4.10;;;12.30;99.90;;;;;;5115497;28;20458;-69
2021/10/27 07:25:18;;;;;;;6.53;4.23;;;12.30;99.90;;;;;;5115676;28;20817;-70
2021/10/27 07:27:46;;;;;;;7.37;3.50;;;12.40;99.90;;;;;;5115247;28;20484;-69
2021/10/27 07:30:16;;;;;;;4.90;3.97;;;12.40;99.90;;;;;;5115983;28;20555;-70
2021/10/27 07:32:43;;;;;;;11.30;3.93;;;12.40;99.90;;;;;;5115005;28;20912;-69
2021/10/27 07:35:23;;;;;;;3.97;3.57;;;12.40;99.90;;;;;;5115691;28;20464;-71
2021/10/27 07:40:41;;;;;;;10.60;3.53;;;12.50;99.90;;;;;;5115714;28;20482;-69
2021/10/27 07:43:12;;;;;;;6.70;3.77;;;12.60;99.90;;;;;;5115936;28;20509;-71
2021/10/27 07:45:40;;;;;;;3.87;3.40;;;12.60;99.90;;;;;;5114814;28;20941;-69
2021/10/27 07:48:08;;;;;;;6.07;3.53;;;12.70;99.90;;;;;;5115392;28;20537;-69
2021/10/27 07:50:36;;;;;;;5.80;4.10;;;12.70;99.90;;;;;;5116296;28;20568;-69
2021/10/27 07:53:05;;;;;;;4.60;3.40;;;12.80;99.90;;;;;;5115447;28;20493;-70
2021/10/27 07:55:33;;;;;;;5.77;3.40;;;12.80;99.90;;;;;;5115270;28;20546;-70
2021/10/27 07:58:01;;;;;;;6.10;4.30;;;12.90;99.90;;;;;;5115094;28;20452;-71
2021/10/27 08:00:30;;;;;;;4.27;3.80;;;12.90;99.90;;;;;;5114808;28;20476;-70
2021/10/27 08:03:00;;;;;;;8.67;3.43;;;12.90;99.90;;;;;;5116009;28;20487;-71
2021/10/27 08:05:29;;;;;;;3.87;3.50;;;13.00;99.90;;;;;;5115611;28;20433;-69
2021/10/27 08:07:57;;;;;;;5.20;3.90;;;13.10;99.90;;;;;;5114964;28;20485;-70
2021/10/27 08:10:24;;;;;;;7.30;3.50;;;13.10;99.90;;;;;;5116682;28;20517;-69
2021/10/27 08:12:51;;;;;;;6.10;3.57;;;13.20;99.90;;;;;;5116052;28;20460;-69
2021/10/27 08:15:18;;;;;;;5.60;3.30;;;13.20;99.90;;;;;;5115603;28;20539;-70
2021/10/27 08:17:47;;;;;;;7.00;3.67;;;13.30;99.90;;;;;;5116451;28;20453;-69
2021/10/27 08:20:14;;;;;;;5.00;3.27;;;13.30;99.90;;;;;;5115939;28;20489;-69
2021/10/27 08:22:43;;;;;;;5.67;3.33;;;13.40;99.90;;;;;;5116087;28;20870;-69
2021/10/27 08:25:18;;;;;;;6.13;3.73;;;13.50;99.90;;;;;;5115374;28;20848;-70
2021/10/27 08:27:44;;;;;;;4.00;2.93;;;13.50;99.90;;;;;;5115228;28;20575;-69
2021/10/27 08:30:13;;;;;;;4.97;3.70;;;13.60;99.90;;;;;;5116709;28;20464;-68
2021/10/27 08:32:45;;;;;;;6.90;3.70;;;13.60;99.90;;;;;;5115863;28;20503;-70
2021/10/27 08:35:14;;;;;;;10.80;3.40;;;13.60;99.90;;;;;;5116069;28;20452;-68
2021/10/27 08:37:43;;;;;;;8.47;3.07;;;13.60;99.90;;;;;;5115482;28;20456;-68
2021/10/27 08:40:11;;;;;;;7.53;3.77;;;13.60;99.90;;;;;;5115124;28;20461;-69
2021/10/27 08:42:40;;;;;;;6.40;3.47;;;13.60;99.90;;;;;;5115121;28;20837;-69
2021/10/27 08:45:07;;;;;;;5.10;3.70;;;13.60;99.90;;;;;;5115789;28;20555;-70
2021/10/27 08:47:35;;;;;;;5.50;3.70;;;13.70;99.90;;;;;;5116599;28;20782;-70
2021/10/27 08:50:03;;;;;;;7.97;3.20;;;13.70;99.90;;;;;;5116786;28;21070;-69
2021/10/27 08:52:31;;;;;;;5.70;3.20;;;13.70;99.90;;;;;;5117742;28;20495;-69
2021/10/27 08:54:58;;;;;;;3.50;3.20;;;13.80;99.90;;;;;;5117843;28;20453;-69
2021/10/27 08:57:25;;;;;;;5.53;3.30;;;13.90;99.90;;;;;;5117438;28;20449;-69
2021/10/27 08:59:55;;;;;;;3.10;2.60;;;14.00;99.90;;;;;;5117062;28;20449;-69
2021/10/27 09:02:39;;;;;;;9.20;4.33;;;14.10;99.90;;;;;;5117007;28;20548;-69
2021/10/27 09:08:20;;;;;;;6.73;3.37;;;14.20;99.90;;;;;;5104094;28;20560;-69
2021/10/27 09:16:41;;;;;;;7.60;3.93;;;14.30;99.90;;;;;;5114494;28;20425;-69
2021/10/27 09:39:10;;;;;;;5.93;2.90;;;14.60;99.90;;;;;;5117266;28;20456;-69
2021/10/27 09:42:04;;;;;;;5.27;3.27;;;14.70;99.90;;;;;;5117529;28;20928;-69
2021/10/27 09:45:07;;;;;;;4.83;3.03;;;14.90;99.90;;;;;;5117976;28;20558;-70
2021/10/27 09:55:21;;;;;;;4.63;3.93;;;15.10;99.90;;;;;;5117687;28;20480;-69
2021/10/27 10:04:41;;;;;;;3.60;3.23;;;15.40;99.90;;;;;;5117267;28;20489;-69
2021/10/27 10:07:09;;;;;;;4.10;3.70;;;15.30;99.90;;;;;;5116980;28;20461;-69
2021/10/27 10:09:39;;;;;;;6.10;3.17;;;15.20;99.90;;;;;;5117340;28;20858;-70
2021/10/27 10:12:07;;;;;;;9.33;3.33;;;15.20;99.90;;;;;;5118776;28;20507;-70
2021/10/27 10:14:38;;;;;;;6.63;2.90;;;15.10;99.90;;;;;;5119906;28;20852;-69
2021/10/27 10:17:06;;;;;;;6.60;2.90;;;15.10;99.90;;;;;;5118180;28;20449;-69
2021/10/27 10:19:35;;;;;;;6.17;2.60;;;15.10;99.90;;;;;;5118539;28;20453;-69
2021/10/27 10:22:03;;;;;;;2.73;2.53;;;15.00;99.90;;;;;;5117774;27;20457;-68
2021/10/27 10:24:38;;;;;;;4.47;2.80;;;15.00;99.90;;;;;;5118358;28;20480;-69
2021/10/27 10:27:10;;;;;;;5.20;3.23;;;14.90;99.90;;;;;;5117419;28;20436;-70
2021/10/27 10:29:55;;;;;;;4.60;2.60;;;15.00;99.90;;;;;;5117477;28;20464;-69
2021/10/27 10:32:38;;;;;;;7.97;3.13;;;15.00;99.90;;;;;;5117608;28;20437;-69
2021/10/27 10:35:31;;;;;;;6.43;3.03;;;15.10;99.90;;;;;;5119143;28;20434;-69
2021/10/27 10:38:11;;;;;;;4.10;3.10;;;15.10;99.90;;;;;;5118953;28;20448;-70
2021/10/27 10:41:11;;;;;;;6.87;2.97;;;15.10;99.90;;;;;;5116883;28;20447;-69
2021/10/27 10:44:16;;;;;;;10.97;3.03;;;15.10;99.90;;;;;;5117205;28;20466;-68
2021/10/27 10:59:34;;;;;;;4.97;2.60;;;15.00;99.90;;;;;;5116541;28;20433;-68
2021/10/27 11:24:42;;;;;;;6.53;3.10;;;15.00;99.90;;;;;;5116960;28;20479;-68
2021/10/27 11:27:23;;;;;;;4.70;2.70;;;15.00;99.90;;;;;;5119612;28;20498;-69
2021/10/27 11:38:18;;;;;;;3.17;2.80;;;15.00;99.90;;;;;;5119437;28;20428;-69
2021/10/27 11:40:47;;;;;;;2.77;2.57;;;15.00;99.90;;;;;;5122611;28;20441;-70
2021/10/27 11:43:25;;;;;;;6.53;3.27;;;15.00;99.90;;;;;;5118500;28;20945;-69
2021/10/27 11:45:54;;;;;;;3.23;2.50;;;15.00;99.90;;;;;;5117520;28;20441;-69
2021/10/27 11:48:31;;;;;;;7.83;3.10;;;15.00;99.90;;;;;;5115549;28;20516;-69
2021/10/27 11:51:00;;;;;;;6.80;2.93;;;15.00;99.90;;;;;;5115993;28;20765;-69
2021/10/27 11:53:29;;;;;;;3.77;2.60;;;15.00;99.90;;;;;;5114736;28;20906;-69
2021/10/27 11:55:57;;;;;;;4.13;2.70;;;15.00;99.90;;;;;;5114813;28;20457;-69
2021/10/27 11:58:36;;;;;;;3.60;2.70;;;15.10;99.90;;;;;;5114970;28;20480;-70
2021/10/27 12:01:04;;;;;;;4.87;3.00;;;15.10;99.90;;;;;;5115150;28;20497;-70
2021/10/27 12:03:36;;;;;;;4.57;2.70;;;15.20;99.90;;;;;;5118684;28;20462;-69
2021/10/27 12:06:07;;;;;;;6.33;3.10;;;15.20;99.90;;;;;;5114825;28;20501;-69
2021/10/27 12:08:48;;;;;;;3.93;2.80;;;15.20;99.90;;;;;;5115152;28;20564;-70
2021/10/27 12:11:29;;;;;;;3.60;2.73;;;15.20;99.90;;;;;;5115436;28;20536;-68
2021/10/27 12:13:59;;;;;;;4.03;2.40;;;15.10;99.90;;;;;;5114738;28;20856;-68
2021/10/27 12:19:37;;;;;;;6.47;3.70;;;15.20;99.90;;;;;;5114932;28;20448;-69
2021/10/27 12:22:08;;;;;;;7.20;2.67;;;15.10;99.90;;;;;;5114515;28;20448;-67
2021/10/27 12:24:37;;;;;;;3.40;3.03;;;15.20;99.90;;;;;;5114354;28;20487;-69
2021/10/27 12:27:19;;;;;;;5.30;2.80;;;15.20;99.90;;;;;;5115011;28;20463;-69
2021/10/27 12:29:53;;;;;;;4.97;3.20;;;15.20;99.90;;;;;;5114770;28;20477;-69
2021/10/27 12:32:19;;;;;;;4.20;2.80;;;15.20;99.90;;;;;;5114578;28;20460;-69
2021/10/27 12:34:49;;;;;;;6.90;3.10;;;15.20;99.90;;;;;;5114624;28;20460;-69
2021/10/27 12:37:31;;;;;;;5.63;2.93;;;15.20;99.90;;;;;;5114471;28;20487;-69
2021/10/27 12:40:10;;;;;;;4.27;2.53;;;15.20;99.90;;;;;;5114646;28;20746;-69
2021/10/27 12:42:37;;;;;;;6.20;2.57;;;15.20;99.90;;;;;;5115020;28;20432;-69
2021/10/27 12:45:05;;;;;;;6.40;2.83;;;15.10;99.90;;;;;;5114473;28;20449;-69
2021/10/27 12:47:33;;;;;;;3.37;2.93;;;15.10;99.90;;;;;;5114395;28;20916;-70
2021/10/27 12:50:07;;;;;;;8.43;2.93;;;15.10;99.90;;;;;;5114890;28;20591;-69
2021/10/27 12:52:38;;;;;;;4.53;3.10;;;15.10;99.90;;;;;;5114379;28;20448;-70
2021/10/27 12:55:31;;;;;;;4.03;2.50;;;15.10;99.90;;;;;;5115083;28;20800;-69
2021/10/27 12:58:01;;;;;;;2.93;2.67;;;15.10;99.90;;;;;;5114483;28;20440;-74
2021/10/27 13:00:35;;;;;;;3.23;2.80;;;15.10;99.90;;;;;;5114095;28;20889;-69
2021/10/27 13:03:39;;;;;;;3.10;2.80;;;15.10;99.90;;;;;;5114670;28;20476;-69
2021/10/27 13:06:19;;;;;;;3.27;2.77;;;15.10;99.90;;;;;;5114651;28;20528;-69
2021/10/27 13:11:52;;;;;;;5.80;3.37;;;15.00;99.90;;;;;;5084448;28;20916;-69
2021/10/27 13:14:35;;;;;;;3.40;3.10;;;15.00;99.90;;;;;;5097616;28;20498;-69
2021/10/27 13:20:02;;;;;;;5.73;3.20;;;15.00;99.90;;;;;;5098065;28;20483;-69
2021/10/27 13:22:38;;;;;;;4.17;3.60;;;15.00;99.90;;;;;;5098067;28;20823;-69
2021/10/27 13:30:51;;;;;;;5.83;3.10;;;15.00;99.90;;;;;;5097637;28;20475;-68
2021/10/27 13:33:20;;;;;;;4.73;3.03;;;15.00;99.90;;;;;;5098090;28;20442;-69
2021/10/27 13:35:47;;;;;;;5.57;3.30;;;14.90;99.90;;;;;;5097674;28;20461;-69
2021/10/27 13:38:15;;;;;;;4.43;3.23;;;15.00;99.90;;;;;;5097843;28;20779;-69
2021/10/27 13:40:44;;;;;;;5.47;3.17;;;15.00;99.90;;;;;;5097343;28;20905;-69
2021/10/27 13:43:15;;;;;;;4.40;3.10;;;15.00;99.90;;;;;;5097208;28;20457;-69
2021/10/27 13:45:48;;;;;;;9.07;3.50;;;14.90;99.90;;;;;;5097792;28;20461;-69
2021/10/27 13:48:22;;;;;;;5.13;3.20;;;15.00;99.90;;;;;;5096888;28;20869;-68
2021/10/27 13:59:14;;;;;;;5.90;3.30;;;15.00;99.90;;;;;;5097167;28;20430;-69
2021/10/27 14:07:17;;;;;;;3.90;2.90;;;15.00;99.90;;;;;;5096681;28;20770;-68
2021/10/27 14:09:48;;;;;;;5.47;3.20;;;15.00;99.90;;;;;;5096888;28;20478;-69
2021/10/27 14:12:24;;;;;;;3.77;3.10;;;15.00;99.90;;;;;;5097109;28;20442;-69
2021/10/27 14:15:03;;;;;;;7.73;3.00;;;14.90;99.90;;;;;;5097484;28;20438;-70
2021/10/27 14:17:45;;;;;;;7.67;3.30;;;14.90;99.90;;;;;;5097444;28;20446;-68
2021/10/27 14:20:29;;;;;;;4.83;3.43;;;14.90;99.90;;;;;;5097508;28;20435;-69
2021/10/27 14:40:01;;;;;;;4.20;3.37;;;14.90;99.90;;;;;;5096012;28;20418;-69
2021/10/27 14:48:21;;;;;;;4.07;3.20;;;14.80;99.90;;;;;;5057285;28;20928;-70
2021/10/27 14:59:20;;;;;;;6.67;4.53;;;14.80;99.90;;;;;;5073095;28;20940;-70
2021/10/27 15:20:57;;;;;;;5.97;4.07;;;14.80;99.90;;;;;;5098452;28;20931;-70
2021/10/27 15:23:30;;;;;;;7.30;4.60;;;14.70;99.90;;;;;;5096651;28;20513;-70
2021/10/27 15:28:52;;;;;;;6.10;4.33;;;14.80;99.90;;;;;;5094613;28;20464;-70
2021/10/27 15:31:28;;;;;;;6.63;4.37;;;14.70;99.90;;;;;;5095263;28;20442;-70
2021/10/27 15:34:21;;;;;;;8.67;4.13;;;14.70;99.90;;;;;;5095079;28;20889;-70
2021/10/27 15:42:39;;;;;;;9.93;5.10;;;14.70;99.90;;;;;;5078539;28;20448;-70
2021/10/27 15:45:21;;;;;;;6.23;5.10;;;14.70;99.90;;;;;;5094971;28;20729;-70
2021/10/27 15:50:43;;;;;;;6.23;4.87;;;14.70;99.90;;;;;;5094899;28;21055;-70
2021/10/27 15:53:09;;;;;;;6.50;5.40;;;14.70;99.90;;;;;;5094733;28;20438;-70
2021/10/27 15:55:36;;;;;;;7.63;5.00;;;14.70;99.90;;;;;;5094341;28;20941;-70
2021/10/27 15:58:03;;;;;;;5.90;4.80;;;14.70;99.90;;;;;;5094931;28;20462;-70
2021/10/27 16:00:30;;;;;;;6.37;4.80;;;14.70;99.90;;;;;;5094498;28;20449;-70
2021/10/27 16:02:57;;;;;;;10.37;7.00;;;14.70;99.90;;;;;;5094468;28;20457;-70
2021/10/27 16:05:26;;;;;;;7.03;5.00;;;14.70;99.90;;;;;;5094532;28;20489;-70
2021/10/27 16:07:55;;;;;;;8.77;5.63;;;14.70;99.90;;;;;;5094205;28;20454;-70
2021/10/27 16:10:22;;;;;;;9.03;4.90;;;14.70;99.90;;;;;;5094119;28;20979;-70
2021/10/27 16:12:49;;;;;;;10.87;4.83;;;14.70;99.90;;;;;;5094524;28;20453;-70
2021/10/27 16:15:21;;;;;;;5.43;4.50;;;14.70;99.90;;;;;;5094494;28;20458;-70
2021/10/27 16:17:48;;;;;;;5.33;4.60;;;14.70;99.90;;;;;;5094656;28;20540;-71
2021/10/27 16:20:14;;;;;;;5.77;4.40;;;14.70;99.90;;;;;;5094388;28;20458;-70
2021/10/27 16:22:41;;;;;;;7.27;4.73;;;14.70;99.90;;;;;;5094505;28;20794;-70